sensor_id;sensor_type;location;lat;lon;timestamp;P1;durP1;ratioP1;P2;durP2;ratioP2
36191;SDS011;22233;42.708;23.360;2023-11-19T00:00:30;3.25;;;2.72;;
36191;SDS011;22233;42.708;23.360;2023-11-19T00:02:55;3.22;;;2.92;;
36191;SDS011;22233;42.708;23.360;2023-11-19T00:05:21;2.67;;;2.28;;
36191;SDS011;22233;42.708;23.360;2023-11-19T00:07:46;3.78;;;2.20;;
36191;SDS011;22233;42.708;23.360;2023-11-19T00:10:16;3.08;;;2.17;;
36191;SDS011;22233;42.708;23.360;2023-11-19T00:12:45;2.80;;;2.10;;
36191;SDS011;22233;42.708;23.360;2023-11-19T00:15:11;2.88;;;2.58;;
36191;SDS011;22233;42.708;23.360;2023-11-19T00:17:47;4.13;;;3.10;;
36191;SDS011;22233;42.708;23.360;2023-11-19T00:20:13;2.97;;;2.60;;
36191;SDS011;22233;42.708;23.360;2023-11-19T00:22:40;2.20;;;2.03;;
36191;SDS011;22233;42.708;23.360;2023-11-19T00:25:07;2.08;;;1.98;;
36191;SDS011;22233;42.708;23.360;2023-11-19T00:27:33;2.28;;;2.08;;
36191;SDS011;22233;42.708;23.360;2023-11-19T00:29:59;2.55;;;2.35;;
36191;SDS011;22233;42.708;23.360;2023-11-19T00:32:24;2.53;;;2.33;;
36191;SDS011;22233;42.708;23.360;2023-11-19T00:34:50;2.60;;;2.40;;
36191;SDS011;22233;42.708;23.360;2023-11-19T00:37:15;2.58;;;2.10;;
36191;SDS011;22233;42.708;23.360;2023-11-19T00:39:41;2.60;;;2.40;;
36191;SDS011;22233;42.708;23.360;2023-11-19T00:42:07;3.83;;;2.40;;
36191;SDS011;22233;42.708;23.360;2023-11-19T00:44:32;2.63;;;2.13;;
36191;SDS011;22233;42.708;23.360;2023-11-19T00:46:58;2.63;;;2.42;;
36191;SDS011;22233;42.708;23.360;2023-11-19T00:49:25;2.70;;;2.50;;
36191;SDS011;22233;42.708;23.360;2023-11-19T00:51:50;3.08;;;2.80;;
36191;SDS011;22233;42.708;23.360;2023-11-19T00:54:15;2.53;;;2.28;;
36191;SDS011;22233;42.708;23.360;2023-11-19T00:56:41;4.35;;;2.20;;
36191;SDS011;22233;42.708;23.360;2023-11-19T00:59:06;2.50;;;2.30;;
36191;SDS011;22233;42.708;23.360;2023-11-19T01:01:32;3.42;;;2.75;;
36191;SDS011;22233;42.708;23.360;2023-11-19T01:03:58;2.72;;;2.53;;
36191;SDS011;22233;42.708;23.360;2023-11-19T01:06:27;2.92;;;2.55;;
36191;SDS011;22233;42.708;23.360;2023-11-19T01:08:53;2.55;;;2.25;;
36191;SDS011;22233;42.708;23.360;2023-11-19T01:11:20;2.78;;;2.50;;
36191;SDS011;22233;42.708;23.360;2023-11-19T01:13:46;2.85;;;2.53;;
36191;SDS011;22233;42.708;23.360;2023-11-19T01:16:11;2.70;;;2.50;;
36191;SDS011;22233;42.708;23.360;2023-11-19T01:18:38;2.58;;;2.30;;
36191;SDS011;22233;42.708;23.360;2023-11-19T01:21:03;2.08;;;1.98;;
36191;SDS011;22233;42.708;23.360;2023-11-19T01:23:29;2.92;;;2.33;;
36191;SDS011;22233;42.708;23.360;2023-11-19T01:25:55;3.17;;;2.60;;
36191;SDS011;22233;42.708;23.360;2023-11-19T01:28:20;2.65;;;2.00;;
36191;SDS011;22233;42.708;23.360;2023-11-19T01:30:45;3.08;;;2.80;;
36191;SDS011;22233;42.708;23.360;2023-11-19T01:33:11;2.42;;;2.22;;
36191;SDS011;22233;42.708;23.360;2023-11-19T01:35:36;2.65;;;2.08;;
36191;SDS011;22233;42.708;23.360;2023-11-19T01:38:01;2.63;;;2.42;;
36191;SDS011;22233;42.708;23.360;2023-11-19T01:40:27;2.60;;;2.40;;
36191;SDS011;22233;42.708;23.360;2023-11-19T01:42:52;3.10;;;2.22;;
36191;SDS011;22233;42.708;23.360;2023-11-19T01:45:27;2.40;;;2.20;;
36191;SDS011;22233;42.708;23.360;2023-11-19T01:47:57;2.67;;;2.40;;
36191;SDS011;22233;42.708;23.360;2023-11-19T01:50:25;2.60;;;2.25;;
36191;SDS011;22233;42.708;23.360;2023-11-19T01:52:53;2.80;;;2.20;;
36191;SDS011;22233;42.708;23.360;2023-11-19T01:55:19;2.47;;;2.28;;
36191;SDS011;22233;42.708;23.360;2023-11-19T01:57:46;2.90;;;2.30;;
36191;SDS011;22233;42.708;23.360;2023-11-19T02:00:14;3.17;;;2.60;;
36191;SDS011;22233;42.708;23.360;2023-11-19T02:02:41;4.68;;;3.17;;
36191;SDS011;22233;42.708;23.360;2023-11-19T02:05:08;2.58;;;2.38;;
36191;SDS011;22233;42.708;23.360;2023-11-19T02:07:34;2.88;;;2.08;;
36191;SDS011;22233;42.708;23.360;2023-11-19T02:09:59;2.97;;;2.60;;
36191;SDS011;22233;42.708;23.360;2023-11-19T02:14:59;2.65;;;2.45;;
36191;SDS011;22233;42.708;23.360;2023-11-19T02:17:28;2.38;;;2.15;;
36191;SDS011;22233;42.708;23.360;2023-11-19T02:19:56;2.10;;;1.90;;
36191;SDS011;22233;42.708;23.360;2023-11-19T02:22:22;2.50;;;2.30;;
36191;SDS011;22233;42.708;23.360;2023-11-19T02:24:47;2.83;;;2.40;;
36191;SDS011;22233;42.708;23.360;2023-11-19T02:27:20;2.55;;;2.20;;
36191;SDS011;22233;42.708;23.360;2023-11-19T02:29:58;2.15;;;1.95;;
36191;SDS011;22233;42.708;23.360;2023-11-19T02:32:27;2.78;;;2.58;;
36191;SDS011;22233;42.708;23.360;2023-11-19T02:34:53;2.63;;;2.38;;
36191;SDS011;22233;42.708;23.360;2023-11-19T02:37:18;2.15;;;1.95;;
36191;SDS011;22233;42.708;23.360;2023-11-19T02:39:44;2.33;;;2.13;;
36191;SDS011;22233;42.708;23.360;2023-11-19T02:42:09;3.00;;;2.33;;
36191;SDS011;22233;42.708;23.360;2023-11-19T02:44:36;2.03;;;1.83;;
36191;SDS011;22233;42.708;23.360;2023-11-19T02:47:01;2.67;;;2.25;;
36191;SDS011;22233;42.708;23.360;2023-11-19T02:49:28;2.10;;;1.90;;
36191;SDS011;22233;42.708;23.360;2023-11-19T02:51:53;3.30;;;3.00;;
36191;SDS011;22233;42.708;23.360;2023-11-19T02:54:19;2.70;;;2.50;;
36191;SDS011;22233;42.708;23.360;2023-11-19T02:56:46;2.85;;;2.40;;
36191;SDS011;22233;42.708;23.360;2023-11-19T02:59:20;3.00;;;2.47;;
36191;SDS011;22233;42.708;23.360;2023-11-19T03:01:52;2.35;;;2.05;;
36191;SDS011;22233;42.708;23.360;2023-11-19T03:04:18;3.15;;;2.47;;
36191;SDS011;22233;42.708;23.360;2023-11-19T03:06:45;3.30;;;2.33;;
36191;SDS011;22233;42.708;23.360;2023-11-19T03:09:11;2.25;;;2.03;;
36191;SDS011;22233;42.708;23.360;2023-11-19T03:11:37;3.20;;;2.42;;
36191;SDS011;22233;42.708;23.360;2023-11-19T03:14:02;2.83;;;2.40;;
36191;SDS011;22233;42.708;23.360;2023-11-19T03:16:28;2.38;;;2.17;;
36191;SDS011;22233;42.708;23.360;2023-11-19T03:18:54;2.55;;;2.35;;
36191;SDS011;22233;42.708;23.360;2023-11-19T03:21:26;2.50;;;2.30;;
36191;SDS011;22233;42.708;23.360;2023-11-19T03:23:53;2.80;;;2.05;;
36191;SDS011;22233;42.708;23.360;2023-11-19T03:26:18;2.38;;;2.17;;
36191;SDS011;22233;42.708;23.360;2023-11-19T03:28:43;2.30;;;2.10;;
36191;SDS011;22233;42.708;23.360;2023-11-19T03:31:09;2.55;;;2.35;;
36191;SDS011;22233;42.708;23.360;2023-11-19T03:33:34;2.85;;;2.25;;
36191;SDS011;22233;42.708;23.360;2023-11-19T03:35:59;2.65;;;2.22;;
36191;SDS011;22233;42.708;23.360;2023-11-19T03:38:25;2.90;;;2.00;;
36191;SDS011;22233;42.708;23.360;2023-11-19T03:40:50;2.70;;;2.50;;
36191;SDS011;22233;42.708;23.360;2023-11-19T03:43:16;2.00;;;1.73;;
36191;SDS011;22233;42.708;23.360;2023-11-19T03:45:41;3.33;;;2.47;;
36191;SDS011;22233;42.708;23.360;2023-11-19T03:48:07;3.50;;;2.50;;
36191;SDS011;22233;42.708;23.360;2023-11-19T03:50:32;2.92;;;2.55;;
36191;SDS011;22233;42.708;23.360;2023-11-19T03:52:58;2.13;;;1.90;;
36191;SDS011;22233;42.708;23.360;2023-11-19T03:55:24;2.20;;;2.00;;
36191;SDS011;22233;42.708;23.360;2023-11-19T03:57:49;3.20;;;2.60;;
36191;SDS011;22233;42.708;23.360;2023-11-19T04:00:15;2.95;;;2.65;;
36191;SDS011;22233;42.708;23.360;2023-11-19T04:02:41;2.08;;;1.77;;
36191;SDS011;22233;42.708;23.360;2023-11-19T04:05:06;2.67;;;2.03;;
36191;SDS011;22233;42.708;23.360;2023-11-19T04:07:32;2.95;;;2.20;;
36191;SDS011;22233;42.708;23.360;2023-11-19T04:09:58;3.00;;;2.50;;
36191;SDS011;22233;42.708;23.360;2023-11-19T04:12:24;2.83;;;2.10;;
36191;SDS011;22233;42.708;23.360;2023-11-19T04:14:49;3.35;;;2.55;;
36191;SDS011;22233;42.708;23.360;2023-11-19T04:17:15;3.20;;;2.30;;
36191;SDS011;22233;42.708;23.360;2023-11-19T04:19:40;2.50;;;2.30;;
36191;SDS011;22233;42.708;23.360;2023-11-19T04:22:09;2.40;;;2.20;;
36191;SDS011;22233;42.708;23.360;2023-11-19T04:24:35;2.63;;;2.38;;
36191;SDS011;22233;42.708;23.360;2023-11-19T04:27:01;3.42;;;2.10;;
36191;SDS011;22233;42.708;23.360;2023-11-19T04:29:26;2.85;;;2.60;;
36191;SDS011;22233;42.708;23.360;2023-11-19T04:31:52;2.72;;;2.05;;
36191;SDS011;22233;42.708;23.360;2023-11-19T04:34:17;4.18;;;2.70;;
36191;SDS011;22233;42.708;23.360;2023-11-19T04:36:43;2.83;;;2.47;;
36191;SDS011;22233;42.708;23.360;2023-11-19T04:39:09;4.68;;;3.03;;
36191;SDS011;22233;42.708;23.360;2023-11-19T04:41:35;3.45;;;2.70;;
36191;SDS011;22233;42.708;23.360;2023-11-19T04:44:01;3.10;;;2.60;;
36191;SDS011;22233;42.708;23.360;2023-11-19T04:46:26;2.97;;;2.10;;
36191;SDS011;22233;42.708;23.360;2023-11-19T04:48:57;2.65;;;2.45;;
36191;SDS011;22233;42.708;23.360;2023-11-19T04:51:22;2.97;;;2.75;;
36191;SDS011;22233;42.708;23.360;2023-11-19T04:53:47;3.42;;;3.05;;
36191;SDS011;22233;42.708;23.360;2023-11-19T04:56:13;3.15;;;2.85;;
36191;SDS011;22233;42.708;23.360;2023-11-19T04:58:41;3.17;;;2.85;;
36191;SDS011;22233;42.708;23.360;2023-11-19T05:01:12;2.88;;;2.50;;
36191;SDS011;22233;42.708;23.360;2023-11-19T05:03:42;3.55;;;2.50;;
36191;SDS011;22233;42.708;23.360;2023-11-19T05:06:07;3.25;;;2.95;;
36191;SDS011;22233;42.708;23.360;2023-11-19T05:08:38;2.95;;;2.65;;
36191;SDS011;22233;42.708;23.360;2023-11-19T05:11:04;3.08;;;2.72;;
36191;SDS011;22233;42.708;23.360;2023-11-19T05:13:33;3.60;;;2.85;;
36191;SDS011;22233;42.708;23.360;2023-11-19T05:15:58;2.60;;;2.40;;
36191;SDS011;22233;42.708;23.360;2023-11-19T05:18:28;3.20;;;2.70;;
36191;SDS011;22233;42.708;23.360;2023-11-19T05:20:53;2.50;;;2.30;;
36191;SDS011;22233;42.708;23.360;2023-11-19T05:23:19;2.22;;;2.03;;
36191;SDS011;22233;42.708;23.360;2023-11-19T05:25:48;3.95;;;2.60;;
36191;SDS011;22233;42.708;23.360;2023-11-19T05:28:15;3.70;;;2.70;;
36191;SDS011;22233;42.708;23.360;2023-11-19T05:30:40;2.85;;;2.60;;
36191;SDS011;22233;42.708;23.360;2023-11-19T05:33:09;3.30;;;2.90;;
36191;SDS011;22233;42.708;23.360;2023-11-19T05:35:34;2.83;;;2.63;;
36191;SDS011;22233;42.708;23.360;2023-11-19T05:38:01;3.53;;;2.90;;
36191;SDS011;22233;42.708;23.360;2023-11-19T05:40:28;3.87;;;2.67;;
36191;SDS011;22233;42.708;23.360;2023-11-19T05:42:53;3.42;;;2.38;;
36191;SDS011;22233;42.708;23.360;2023-11-19T05:45:20;2.88;;;2.60;;
36191;SDS011;22233;42.708;23.360;2023-11-19T05:47:45;3.22;;;2.80;;
36191;SDS011;22233;42.708;23.360;2023-11-19T05:50:11;3.20;;;2.45;;
36191;SDS011;22233;42.708;23.360;2023-11-19T05:52:38;3.63;;;2.78;;
36191;SDS011;22233;42.708;23.360;2023-11-19T05:57:35;3.42;;;2.88;;
36191;SDS011;22233;42.708;23.360;2023-11-19T06:00:05;3.00;;;2.70;;
36191;SDS011;22233;42.708;23.360;2023-11-19T06:02:37;2.97;;;2.53;;
36191;SDS011;22233;42.708;23.360;2023-11-19T06:05:07;3.72;;;2.90;;
36191;SDS011;22233;42.708;23.360;2023-11-19T06:07:35;3.53;;;3.20;;
36191;SDS011;22233;42.708;23.360;2023-11-19T06:10:02;3.08;;;2.78;;
36191;SDS011;22233;42.708;23.360;2023-11-19T06:12:30;2.90;;;2.33;;
36191;SDS011;22233;42.708;23.360;2023-11-19T06:14:59;2.65;;;2.33;;
36191;SDS011;22233;42.708;23.360;2023-11-19T06:17:26;7.13;;;3.15;;
36191;SDS011;22233;42.708;23.360;2023-11-19T06:19:52;3.42;;;2.80;;
36191;SDS011;22233;42.708;23.360;2023-11-19T06:22:21;3.63;;;2.60;;
36191;SDS011;22233;42.708;23.360;2023-11-19T06:24:48;3.17;;;2.67;;
36191;SDS011;22233;42.708;23.360;2023-11-19T06:27:16;2.80;;;2.50;;
36191;SDS011;22233;42.708;23.360;2023-11-19T06:29:43;4.07;;;2.47;;
36191;SDS011;22233;42.708;23.360;2023-11-19T06:32:08;2.58;;;2.28;;
36191;SDS011;22233;42.708;23.360;2023-11-19T06:34:34;3.00;;;2.70;;
36191;SDS011;22233;42.708;23.360;2023-11-19T06:36:59;3.50;;;2.72;;
36191;SDS011;22233;42.708;23.360;2023-11-19T06:39:28;4.22;;;3.20;;
36191;SDS011;22233;42.708;23.360;2023-11-19T06:42:02;4.93;;;3.17;;
36191;SDS011;22233;42.708;23.360;2023-11-19T06:44:28;4.30;;;3.47;;
36191;SDS011;22233;42.708;23.360;2023-11-19T06:46:53;3.03;;;2.72;;
36191;SDS011;22233;42.708;23.360;2023-11-19T06:49:20;3.92;;;3.03;;
36191;SDS011;22233;42.708;23.360;2023-11-19T06:51:45;2.70;;;2.45;;
36191;SDS011;22233;42.708;23.360;2023-11-19T06:54:11;2.78;;;2.33;;
36191;SDS011;22233;42.708;23.360;2023-11-19T06:56:39;3.97;;;2.72;;
36191;SDS011;22233;42.708;23.360;2023-11-19T06:59:05;2.55;;;2.35;;
36191;SDS011;22233;42.708;23.360;2023-11-19T07:01:34;3.63;;;3.22;;
36191;SDS011;22233;42.708;23.360;2023-11-19T07:04:01;2.90;;;2.45;;
36191;SDS011;22233;42.708;23.360;2023-11-19T07:06:33;4.15;;;2.85;;
36191;SDS011;22233;42.708;23.360;2023-11-19T07:09:04;3.67;;;3.00;;
36191;SDS011;22233;42.708;23.360;2023-11-19T07:11:41;3.72;;;3.22;;
36191;SDS011;22233;42.708;23.360;2023-11-19T07:14:07;3.88;;;2.85;;
36191;SDS011;22233;42.708;23.360;2023-11-19T07:16:53;4.40;;;2.93;;
36191;SDS011;22233;42.708;23.360;2023-11-19T07:19:26;5.28;;;3.28;;
36191;SDS011;22233;42.708;23.360;2023-11-19T07:21:55;4.45;;;3.20;;
36191;SDS011;22233;42.708;23.360;2023-11-19T07:24:21;3.17;;;2.85;;
36191;SDS011;22233;42.708;23.360;2023-11-19T07:26:49;3.30;;;2.55;;
36191;SDS011;22233;42.708;23.360;2023-11-19T07:29:18;3.13;;;2.22;;
36191;SDS011;22233;42.708;23.360;2023-11-19T07:31:44;3.92;;;3.22;;
36191;SDS011;22233;42.708;23.360;2023-11-19T07:34:13;3.33;;;2.78;;
36191;SDS011;22233;42.708;23.360;2023-11-19T07:36:42;6.03;;;3.70;;
36191;SDS011;22233;42.708;23.360;2023-11-19T07:39:09;3.03;;;2.78;;
36191;SDS011;22233;42.708;23.360;2023-11-19T07:41:36;4.65;;;3.90;;
36191;SDS011;22233;42.708;23.360;2023-11-19T07:44:02;3.55;;;2.80;;
36191;SDS011;22233;42.708;23.360;2023-11-19T07:46:27;3.97;;;2.95;;
36191;SDS011;22233;42.708;23.360;2023-11-19T07:48:54;4.68;;;3.42;;
36191;SDS011;22233;42.708;23.360;2023-11-19T07:51:19;3.60;;;3.00;;
36191;SDS011;22233;42.708;23.360;2023-11-19T07:53:47;4.53;;;3.30;;
36191;SDS011;22233;42.708;23.360;2023-11-19T07:56:16;4.13;;;3.28;;
36191;SDS011;22233;42.708;23.360;2023-11-19T07:58:43;4.10;;;3.40;;
36191;SDS011;22233;42.708;23.360;2023-11-19T08:01:10;3.13;;;2.78;;
36191;SDS011;22233;42.708;23.360;2023-11-19T08:03:40;4.70;;;2.67;;
36191;SDS011;22233;42.708;23.360;2023-11-19T08:06:06;4.18;;;3.10;;
36191;SDS011;22233;42.708;23.360;2023-11-19T08:08:33;4.60;;;3.22;;
36191;SDS011;22233;42.708;23.360;2023-11-19T08:11:00;4.97;;;3.80;;
36191;SDS011;22233;42.708;23.360;2023-11-19T08:13:26;3.17;;;2.87;;
36191;SDS011;22233;42.708;23.360;2023-11-19T08:15:52;3.97;;;2.90;;
36191;SDS011;22233;42.708;23.360;2023-11-19T08:18:24;4.10;;;3.35;;
36191;SDS011;22233;42.708;23.360;2023-11-19T08:20:51;4.18;;;3.78;;
36191;SDS011;22233;42.708;23.360;2023-11-19T08:23:18;4.10;;;3.30;;
36191;SDS011;22233;42.708;23.360;2023-11-19T08:25:46;4.13;;;3.05;;
36191;SDS011;22233;42.708;23.360;2023-11-19T08:28:11;5.00;;;3.58;;
36191;SDS011;22233;42.708;23.360;2023-11-19T08:30:38;3.50;;;3.20;;
36191;SDS011;22233;42.708;23.360;2023-11-19T08:33:03;4.68;;;3.25;;
36191;SDS011;22233;42.708;23.360;2023-11-19T08:38:05;3.42;;;2.70;;
36191;SDS011;22233;42.708;23.360;2023-11-19T08:40:36;5.03;;;3.33;;
36191;SDS011;22233;42.708;23.360;2023-11-19T08:43:02;4.18;;;3.60;;
36191;SDS011;22233;42.708;23.360;2023-11-19T08:45:28;3.88;;;3.38;;
36191;SDS011;22233;42.708;23.360;2023-11-19T08:47:55;3.08;;;2.70;;
36191;SDS011;22233;42.708;23.360;2023-11-19T08:50:22;4.15;;;3.05;;
36191;SDS011;22233;42.708;23.360;2023-11-19T08:52:47;3.50;;;2.97;;
36191;SDS011;22233;42.708;23.360;2023-11-19T08:55:13;3.22;;;2.92;;
36191;SDS011;22233;42.708;23.360;2023-11-19T08:57:38;3.65;;;3.03;;
36191;SDS011;22233;42.708;23.360;2023-11-19T09:00:04;7.22;;;2.55;;
36191;SDS011;22233;42.708;23.360;2023-11-19T09:02:33;4.30;;;3.20;;
36191;SDS011;22233;42.708;23.360;2023-11-19T09:05:00;3.28;;;2.90;;
36191;SDS011;22233;42.708;23.360;2023-11-19T09:07:28;3.60;;;3.03;;
36191;SDS011;22233;42.708;23.360;2023-11-19T09:09:55;3.05;;;2.78;;
36191;SDS011;22233;42.708;23.360;2023-11-19T09:12:20;3.90;;;2.92;;
36191;SDS011;22233;42.708;23.360;2023-11-19T09:14:47;4.18;;;3.22;;
36191;SDS011;22233;42.708;23.360;2023-11-19T09:17:14;4.13;;;3.30;;
36191;SDS011;22233;42.708;23.360;2023-11-19T09:19:40;3.95;;;2.92;;
36191;SDS011;22233;42.708;23.360;2023-11-19T09:22:08;2.92;;;2.45;;
36191;SDS011;22233;42.708;23.360;2023-11-19T09:24:35;3.00;;;2.63;;
36191;SDS011;22233;42.708;23.360;2023-11-19T09:27:00;4.30;;;3.00;;
36191;SDS011;22233;42.708;23.360;2023-11-19T09:29:26;5.18;;;3.58;;
36191;SDS011;22233;42.708;23.360;2023-11-19T09:31:53;5.63;;;4.68;;
36191;SDS011;22233;42.708;23.360;2023-11-19T09:34:18;4.00;;;3.20;;
36191;SDS011;22233;42.708;23.360;2023-11-19T09:36:47;3.15;;;2.85;;
36191;SDS011;22233;42.708;23.360;2023-11-19T09:39:12;4.13;;;3.05;;
36191;SDS011;22233;42.708;23.360;2023-11-19T09:41:41;3.53;;;2.85;;
36191;SDS011;22233;42.708;23.360;2023-11-19T09:44:07;3.53;;;3.08;;
36191;SDS011;22233;42.708;23.360;2023-11-19T09:46:34;3.55;;;2.95;;
36191;SDS011;22233;42.708;23.360;2023-11-19T09:49:06;4.72;;;2.63;;
36191;SDS011;22233;42.708;23.360;2023-11-19T09:51:33;4.78;;;3.10;;
36191;SDS011;22233;42.708;23.360;2023-11-19T09:54:00;3.58;;;2.72;;
36191;SDS011;22233;42.708;23.360;2023-11-19T09:56:25;3.53;;;2.90;;
36191;SDS011;22233;42.708;23.360;2023-11-19T09:58:55;3.15;;;2.85;;
36191;SDS011;22233;42.708;23.360;2023-11-19T10:01:21;3.85;;;3.25;;
36191;SDS011;22233;42.708;23.360;2023-11-19T10:03:47;3.42;;;2.95;;
36191;SDS011;22233;42.708;23.360;2023-11-19T10:06:13;3.00;;;2.60;;
36191;SDS011;22233;42.708;23.360;2023-11-19T10:08:41;2.75;;;2.50;;
36191;SDS011;22233;42.708;23.360;2023-11-19T10:11:10;2.72;;;2.30;;
36191;SDS011;22233;42.708;23.360;2023-11-19T10:13:39;4.75;;;2.60;;
36191;SDS011;22233;42.708;23.360;2023-11-19T10:16:10;2.90;;;2.65;;
36191;SDS011;22233;42.708;23.360;2023-11-19T10:18:44;3.88;;;2.70;;
36191;SDS011;22233;42.708;23.360;2023-11-19T10:21:13;2.97;;;2.65;;
36191;SDS011;22233;42.708;23.360;2023-11-19T10:23:49;3.00;;;2.55;;
36191;SDS011;22233;42.708;23.360;2023-11-19T10:28:47;4.35;;;2.90;;
36191;SDS011;22233;42.708;23.360;2023-11-19T10:31:13;4.05;;;2.83;;
36191;SDS011;22233;42.708;23.360;2023-11-19T10:33:40;3.60;;;2.53;;
36191;SDS011;22233;42.708;23.360;2023-11-19T10:36:06;2.63;;;2.42;;
36191;SDS011;22233;42.708;23.360;2023-11-19T10:38:35;2.63;;;2.38;;
36191;SDS011;22233;42.708;23.360;2023-11-19T10:41:34;2.15;;;1.92;;
36191;SDS011;22233;42.708;23.360;2023-11-19T10:43:59;2.90;;;2.70;;
36191;SDS011;22233;42.708;23.360;2023-11-19T10:46:43;3.70;;;2.42;;
36191;SDS011;22233;42.708;23.360;2023-11-19T10:49:09;3.30;;;2.95;;
36191;SDS011;22233;42.708;23.360;2023-11-19T10:51:35;3.50;;;3.10;;
36191;SDS011;22233;42.708;23.360;2023-11-19T10:54:04;3.63;;;3.13;;
36191;SDS011;22233;42.708;23.360;2023-11-19T10:56:58;3.90;;;2.83;;
36191;SDS011;22233;42.708;23.360;2023-11-19T10:59:31;2.45;;;2.15;;
36191;SDS011;22233;42.708;23.360;2023-11-19T11:01:57;3.28;;;2.75;;
36191;SDS011;22233;42.708;23.360;2023-11-19T11:04:25;2.65;;;2.45;;
36191;SDS011;22233;42.708;23.360;2023-11-19T11:06:56;3.70;;;2.75;;
36191;SDS011;22233;42.708;23.360;2023-11-19T11:09:27;2.20;;;2.00;;
36191;SDS011;22233;42.708;23.360;2023-11-19T11:12:03;3.17;;;2.72;;
36191;SDS011;22233;42.708;23.360;2023-11-19T11:14:34;3.42;;;2.45;;
36191;SDS011;22233;42.708;23.360;2023-11-19T11:17:20;2.90;;;2.63;;
36191;SDS011;22233;42.708;23.360;2023-11-19T11:19:51;2.08;;;1.88;;
36191;SDS011;22233;42.708;23.360;2023-11-19T11:22:16;2.78;;;2.33;;
36191;SDS011;22233;42.708;23.360;2023-11-19T11:24:58;3.50;;;2.60;;
36191;SDS011;22233;42.708;23.360;2023-11-19T11:27:52;5.05;;;2.95;;
36191;SDS011;22233;42.708;23.360;2023-11-19T11:33:03;3.42;;;2.90;;
36191;SDS011;22233;42.708;23.360;2023-11-19T11:38:52;5.35;;;3.72;;
36191;SDS011;22233;42.708;23.360;2023-11-19T11:41:25;3.95;;;3.17;;
36191;SDS011;22233;42.708;23.360;2023-11-19T11:43:57;4.20;;;2.70;;
36191;SDS011;22233;42.708;23.360;2023-11-19T11:49:05;4.70;;;3.10;;
36191;SDS011;22233;42.708;23.360;2023-11-19T11:57:03;2.92;;;2.20;;
36191;SDS011;22233;42.708;23.360;2023-11-19T11:59:43;2.75;;;2.55;;
36191;SDS011;22233;42.708;23.360;2023-11-19T12:02:19;2.90;;;2.50;;
36191;SDS011;22233;42.708;23.360;2023-11-19T12:04:50;1.98;;;1.77;;
36191;SDS011;22233;42.708;23.360;2023-11-19T12:07:29;2.45;;;2.17;;
36191;SDS011;22233;42.708;23.360;2023-11-19T12:10:05;2.67;;;2.15;;
36191;SDS011;22233;42.708;23.360;2023-11-19T12:12:41;3.45;;;2.58;;
36191;SDS011;22233;42.708;23.360;2023-11-19T12:15:14;2.42;;;2.13;;
36191;SDS011;22233;42.708;23.360;2023-11-19T12:17:43;3.10;;;2.50;;
36191;SDS011;22233;42.708;23.360;2023-11-19T12:20:15;3.08;;;2.30;;
36191;SDS011;22233;42.708;23.360;2023-11-19T12:22:44;2.92;;;2.53;;
36191;SDS011;22233;42.708;23.360;2023-11-19T12:25:15;4.78;;;3.33;;
36191;SDS011;22233;42.708;23.360;2023-11-19T12:27:47;3.72;;;2.92;;
36191;SDS011;22233;42.708;23.360;2023-11-19T12:32:57;2.83;;;2.60;;
36191;SDS011;22233;42.708;23.360;2023-11-19T12:35:25;4.67;;;2.90;;
36191;SDS011;22233;42.708;23.360;2023-11-19T12:37:51;3.45;;;2.47;;
36191;SDS011;22233;42.708;23.360;2023-11-19T12:40:21;3.58;;;3.08;;
36191;SDS011;22233;42.708;23.360;2023-11-19T12:42:48;4.10;;;3.10;;
36191;SDS011;22233;42.708;23.360;2023-11-19T12:45:16;5.80;;;3.95;;
36191;SDS011;22233;42.708;23.360;2023-11-19T12:47:43;4.38;;;3.10;;
36191;SDS011;22233;42.708;23.360;2023-11-19T12:50:09;3.88;;;2.53;;
36191;SDS011;22233;42.708;23.360;2023-11-19T12:52:37;4.35;;;2.28;;
36191;SDS011;22233;42.708;23.360;2023-11-19T12:55:23;4.15;;;3.08;;
36191;SDS011;22233;42.708;23.360;2023-11-19T12:57:55;2.58;;;2.20;;
36191;SDS011;22233;42.708;23.360;2023-11-19T13:02:54;4.32;;;3.17;;
36191;SDS011;22233;42.708;23.360;2023-11-19T13:07:48;3.88;;;2.78;;
36191;SDS011;22233;42.708;23.360;2023-11-19T13:10:16;2.38;;;2.03;;
36191;SDS011;22233;42.708;23.360;2023-11-19T13:13:13;3.00;;;2.70;;
36191;SDS011;22233;42.708;23.360;2023-11-19T13:15:38;4.57;;;3.88;;
36191;SDS011;22233;42.708;23.360;2023-11-19T13:18:08;6.55;;;3.75;;
36191;SDS011;22233;42.708;23.360;2023-11-19T13:20:35;5.38;;;3.80;;
36191;SDS011;22233;42.708;23.360;2023-11-19T13:23:01;5.82;;;4.15;;
36191;SDS011;22233;42.708;23.360;2023-11-19T13:25:31;4.97;;;3.88;;
36191;SDS011;22233;42.708;23.360;2023-11-19T13:27:59;5.03;;;4.13;;
36191;SDS011;22233;42.708;23.360;2023-11-19T13:30:27;4.07;;;3.67;;
36191;SDS011;22233;42.708;23.360;2023-11-19T13:32:57;5.13;;;4.63;;
36191;SDS011;22233;42.708;23.360;2023-11-19T13:35:25;7.25;;;4.32;;
36191;SDS011;22233;42.708;23.360;2023-11-19T13:37:53;6.05;;;4.15;;
36191;SDS011;22233;42.708;23.360;2023-11-19T13:40:25;6.07;;;3.92;;
36191;SDS011;22233;42.708;23.360;2023-11-19T13:42:51;3.47;;;3.13;;
36191;SDS011;22233;42.708;23.360;2023-11-19T13:45:17;3.95;;;3.28;;
36191;SDS011;22233;42.708;23.360;2023-11-19T13:47:43;6.68;;;4.15;;
36191;SDS011;22233;42.708;23.360;2023-11-19T13:50:14;5.25;;;4.30;;
36191;SDS011;22233;42.708;23.360;2023-11-19T13:52:44;4.95;;;3.58;;
36191;SDS011;22233;42.708;23.360;2023-11-19T13:55:11;6.55;;;4.60;;
36191;SDS011;22233;42.708;23.360;2023-11-19T13:57:38;5.65;;;4.75;;
36191;SDS011;22233;42.708;23.360;2023-11-19T14:00:08;5.57;;;3.50;;
36191;SDS011;22233;42.708;23.360;2023-11-19T14:02:45;7.65;;;4.43;;
36191;SDS011;22233;42.708;23.360;2023-11-19T14:05:13;5.72;;;4.57;;
36191;SDS011;22233;42.708;23.360;2023-11-19T14:07:42;11.07;;;6.85;;
36191;SDS011;22233;42.708;23.360;2023-11-19T14:10:16;6.72;;;4.32;;
36191;SDS011;22233;42.708;23.360;2023-11-19T14:12:43;5.72;;;4.68;;
36191;SDS011;22233;42.708;23.360;2023-11-19T14:15:09;7.03;;;3.75;;
36191;SDS011;22233;42.708;23.360;2023-11-19T14:17:41;8.38;;;3.90;;
36191;SDS011;22233;42.708;23.360;2023-11-19T14:20:07;4.40;;;3.30;;
36191;SDS011;22233;42.708;23.360;2023-11-19T14:22:45;4.05;;;3.65;;
36191;SDS011;22233;42.708;23.360;2023-11-19T14:25:14;5.03;;;4.25;;
36191;SDS011;22233;42.708;23.360;2023-11-19T14:27:40;5.13;;;3.67;;
36191;SDS011;22233;42.708;23.360;2023-11-19T14:30:07;5.95;;;3.55;;
36191;SDS011;22233;42.708;23.360;2023-11-19T14:32:42;4.97;;;4.13;;
36191;SDS011;22233;42.708;23.360;2023-11-19T14:35:12;5.07;;;4.30;;
36191;SDS011;22233;42.708;23.360;2023-11-19T14:37:38;8.75;;;4.30;;
36191;SDS011;22233;42.708;23.360;2023-11-19T14:40:04;5.68;;;4.78;;
36191;SDS011;22233;42.708;23.360;2023-11-19T14:42:33;6.88;;;4.68;;
36191;SDS011;22233;42.708;23.360;2023-11-19T14:44:59;7.47;;;4.63;;
36191;SDS011;22233;42.708;23.360;2023-11-19T14:47:27;8.60;;;5.85;;
36191;SDS011;22233;42.708;23.360;2023-11-19T14:49:55;6.40;;;5.32;;
36191;SDS011;22233;42.708;23.360;2023-11-19T14:52:23;5.72;;;4.43;;
36191;SDS011;22233;42.708;23.360;2023-11-19T14:54:49;7.18;;;5.22;;
36191;SDS011;22233;42.708;23.360;2023-11-19T14:57:16;8.48;;;6.38;;
36191;SDS011;22233;42.708;23.360;2023-11-19T14:59:46;8.75;;;6.35;;
36191;SDS011;22233;42.708;23.360;2023-11-19T15:02:12;10.70;;;6.70;;
36191;SDS011;22233;42.708;23.360;2023-11-19T15:04:39;10.30;;;6.03;;
36191;SDS011;22233;42.708;23.360;2023-11-19T15:07:10;11.63;;;5.93;;
36191;SDS011;22233;42.708;23.360;2023-11-19T15:09:35;9.88;;;7.28;;